createdAt,value
2022-09-16T00:01:32.950Z,9.68
2022-09-16T00:04:01.903Z,14.18
2022-09-16T00:06:32.636Z,10.13
2022-09-16T00:09:02.369Z,11.20
2022-09-16T00:11:37.264Z,9.57
2022-09-16T00:14:06.511Z,15.63
2022-09-16T00:16:35.632Z,12.05
2022-09-16T00:19:04.722Z,14.23
2022-09-16T00:21:33.912Z,11.25
2022-09-16T00:24:03.176Z,9.05
2022-09-16T00:26:32.236Z,7.93
2022-09-16T00:29:01.182Z,8.55
2022-09-16T00:31:30.167Z,11.82
2022-09-16T00:33:59.085Z,7.05
2022-09-16T00:36:27.982Z,7.28
2022-09-16T00:38:57.521Z,6.97
2022-09-16T00:41:35.523Z,6.70
2022-09-16T00:44:25.715Z,6.88
2022-09-16T00:46:55.570Z,9.23
2022-09-16T00:49:31.677Z,6.63
2022-09-16T00:52:07.113Z,8.35
2022-09-16T00:54:39.072Z,13.05
2022-09-16T00:57:10.113Z,10.38
2022-09-16T00:59:47.608Z,7.68
2022-09-16T01:02:20.611Z,8.80
2022-09-16T01:05:13.367Z,9.83
2022-09-16T01:07:53.364Z,7.70
2022-09-16T01:10:27.476Z,8.27
2022-09-16T01:13:07.942Z,11.63
2022-09-16T01:15:54.110Z,10.10
2022-09-16T01:18:56.414Z,9.88
2022-09-16T01:22:09.749Z,8.35
2022-09-16T01:24:54.023Z,6.25
2022-09-16T01:27:55.620Z,9.93
2022-09-16T01:30:48.212Z,6.72
2022-09-16T01:33:32.892Z,6.00
2022-09-16T01:36:15.827Z,4.93
2022-09-16T01:38:55.485Z,5.25
2022-09-16T01:41:36.893Z,4.82
2022-09-16T01:44:12.990Z,7.07
2022-09-16T01:47:06.384Z,4.93
2022-09-16T01:49:57.213Z,12.15
2022-09-16T01:53:04.457Z,4.70
2022-09-16T01:55:44.218Z,4.13
2022-09-16T01:58:24.353Z,7.82
2022-09-16T02:00:58.043Z,7.55
2022-09-16T02:03:33.060Z,9.00
2022-09-16T02:06:09.952Z,5.28
2022-09-16T02:08:48.233Z,5.32
2022-09-16T02:11:19.428Z,5.65
2022-09-16T02:14:09.845Z,3.92
2022-09-16T02:16:54.420Z,5.30
2022-09-16T02:19:30.021Z,4.38
2022-09-16T02:22:00.737Z,10.93
2022-09-16T02:24:32.115Z,6.45
2022-09-16T02:27:05.148Z,5.63
2022-09-16T02:30:03.150Z,6.15
2022-09-16T02:32:38.561Z,3.47
2022-09-16T02:35:10.229Z,4.43
2022-09-16T02:37:53.173Z,3.92
2022-09-16T02:40:29.749Z,10.77
2022-09-16T02:42:59.938Z,4.40
2022-09-16T02:46:04.960Z,3.78
2022-09-16T02:48:57.560Z,4.00
2022-09-16T02:51:36.452Z,3.97
2022-09-16T02:54:26.039Z,4.13
2022-09-16T02:56:57.616Z,4.93
2022-09-16T02:59:27.039Z,3.00
2022-09-16T03:01:56.465Z,4.95
2022-09-16T03:04:25.488Z,4.55
2022-09-16T03:06:54.388Z,6.10
2022-09-16T03:09:26.316Z,3.78
2022-09-16T03:12:06.665Z,3.20
2022-09-16T03:14:44.518Z,5.95
2022-09-16T03:17:53.697Z,3.55
2022-09-16T03:20:47.040Z,9.25
2022-09-16T03:23:39.058Z,7.03
2022-09-16T03:26:19.664Z,2.50
2022-09-16T03:28:56.016Z,11.57
2022-09-16T03:31:41.019Z,13.23
2022-09-16T03:34:19.989Z,3.35
2022-09-16T03:36:58.211Z,3.95
2022-09-16T03:39:27.066Z,14.93
2022-09-16T03:41:56.741Z,8.38
2022-09-16T03:44:39.584Z,4.22
2022-09-16T03:47:09.653Z,3.22
2022-09-16T03:49:39.169Z,3.75
2022-09-16T03:52:08.799Z,3.28
2022-09-16T03:54:38.805Z,2.58
2022-09-16T03:57:08.178Z,2.33
2022-09-16T03:59:37.038Z,2.95
2022-09-16T04:02:05.883Z,3.95
2022-09-16T04:04:34.835Z,2.30
2022-09-16T04:07:06.704Z,4.28
2022-09-16T04:09:35.605Z,1.88
2022-09-16T04:12:04.843Z,2.38
2022-09-16T04:14:34.033Z,2.47
2022-09-16T04:17:03.586Z,3.22
2022-09-16T04:19:32.591Z,2.83
2022-09-16T04:22:01.486Z,3.67
2022-09-16T04:24:30.807Z,2.58
2022-09-16T04:26:59.851Z,5.88
2022-09-16T04:29:28.963Z,3.65
2022-09-16T04:31:57.890Z,6.28
2022-09-16T04:34:26.874Z,2.53
2022-09-16T04:36:56.032Z,3.15
2022-09-16T04:39:24.903Z,2.35
2022-09-16T04:41:53.757Z,5.05
2022-09-16T04:44:22.760Z,2.28
2022-09-16T04:46:51.606Z,5.82
2022-09-16T04:49:20.680Z,11.15
2022-09-16T04:51:49.719Z,7.63
2022-09-16T04:54:18.624Z,1.50
2022-09-16T04:56:47.996Z,2.63
2022-09-16T04:59:16.950Z,2.72
2022-09-16T05:01:47.015Z,2.25
2022-09-16T05:04:16.041Z,2.20
2022-09-16T05:06:45.794Z,3.28
2022-09-16T05:09:14.933Z,3.10
2022-09-16T05:11:43.818Z,2.58
2022-09-16T05:14:16.956Z,2.50
2022-09-16T05:16:46.924Z,2.50
2022-09-16T05:19:17.265Z,3.10
2022-09-16T05:21:46.227Z,2.03
2022-09-16T05:24:16.325Z,2.17
2022-09-16T05:26:45.862Z,4.68
2022-09-16T05:29:17.099Z,3.33
2022-09-16T05:31:50.184Z,5.78
2022-09-16T05:34:22.686Z,4.05
2022-09-16T05:36:55.037Z,2.05
2022-09-16T05:39:25.925Z,3.13
2022-09-16T05:42:00.162Z,6.15
2022-09-16T05:44:30.356Z,1.85
2022-09-16T05:46:59.318Z,2.85
2022-09-16T05:49:28.232Z,10.88
2022-09-16T05:51:57.123Z,3.83
2022-09-16T05:54:26.375Z,4.00
2022-09-16T05:56:55.321Z,1.88
2022-09-16T05:59:25.249Z,2.63
2022-09-16T06:01:54.361Z,3.22
2022-09-16T06:04:26.107Z,3.78
2022-09-16T06:06:55.252Z,2.78
2022-09-16T06:09:26.221Z,1.80
2022-09-16T06:12:01.713Z,5.15
2022-09-16T06:14:31.455Z,5.97
2022-09-16T06:17:00.446Z,2.88
2022-09-16T06:19:29.382Z,6.28
2022-09-16T06:21:58.261Z,1.95
2022-09-16T06:24:27.335Z,1.92
2022-09-16T06:26:56.248Z,1.55
2022-09-16T06:29:25.232Z,2.97
2022-09-16T06:31:54.140Z,4.25
2022-09-16T06:34:23.148Z,3.45
2022-09-16T06:36:52.097Z,4.18
2022-09-16T06:39:20.928Z,4.05
2022-09-16T06:41:50.278Z,4.55
2022-09-16T06:44:19.197Z,2.05
2022-09-16T06:46:48.063Z,3.03
2022-09-16T06:49:16.925Z,2.10
2022-09-16T06:51:45.792Z,3.88
2022-09-16T06:54:14.703Z,2.80
2022-09-16T06:56:43.652Z,2.30
2022-09-16T06:59:15.433Z,2.58
2022-09-16T07:01:44.418Z,2.17
2022-09-16T07:04:14.942Z,3.17
2022-09-16T07:07:09.119Z,1.33
2022-09-16T07:09:33.443Z,2.28
2022-09-16T07:12:03.329Z,1.98
2022-09-16T07:14:35.520Z,1.55
2022-09-16T07:17:04.709Z,1.80
2022-09-16T07:19:33.689Z,2.10
2022-09-16T07:22:02.596Z,2.75
2022-09-16T07:24:35.229Z,1.67
2022-09-16T07:27:04.169Z,2.57
2022-09-16T07:29:33.499Z,1.05
2022-09-16T07:32:02.400Z,1.88
2022-09-16T07:34:32.119Z,2.70
2022-09-16T07:37:01.180Z,1.85
2022-09-16T07:39:30.464Z,1.55
2022-09-16T07:42:03.858Z,3.35
2022-09-16T07:44:34.817Z,3.20
2022-09-16T07:47:04.252Z,1.33
2022-09-16T07:49:33.166Z,1.20
2022-09-16T07:52:02.085Z,0.75
2022-09-16T07:54:31.085Z,2.33
2022-09-16T07:57:06.075Z,1.83
2022-09-16T07:59:34.908Z,0.80
2022-09-16T08:02:04.469Z,2.28
2022-09-16T08:04:33.640Z,2.80
2022-09-16T08:07:02.540Z,2.30
2022-09-16T08:09:38.696Z,0.90
2022-09-16T08:12:12.004Z,1.65
2022-09-16T08:14:40.987Z,3.13
2022-09-16T08:17:10.031Z,1.77
2022-09-16T08:19:40.439Z,1.15
2022-09-16T08:22:09.456Z,1.65
2022-09-16T08:24:38.380Z,1.45
2022-09-16T08:27:07.374Z,1.80
2022-09-16T08:29:36.322Z,4.50
2022-09-16T08:32:05.367Z,3.95
2022-09-16T08:34:34.460Z,3.17
2022-09-16T08:37:03.345Z,1.95
2022-09-16T08:39:32.568Z,3.42
2022-09-16T08:42:24.860Z,2.90
2022-09-16T08:45:11.193Z,2.15
2022-09-16T08:48:09.271Z,4.15
2022-09-16T08:50:46.172Z,3.30
2022-09-16T08:53:21.695Z,3.47
2022-09-16T08:55:55.170Z,5.97
2022-09-16T08:58:42.930Z,5.03
2022-09-16T09:02:09.727Z,2.97
2022-09-16T09:04:39.043Z,3.92
2022-09-16T09:07:08.987Z,3.40
2022-09-16T09:09:59.324Z,4.07
2022-09-16T09:12:44.192Z,2.60
2022-09-16T09:15:28.108Z,2.15
2022-09-16T09:21:01.012Z,5.57
2022-09-16T09:24:08.283Z,3.05
2022-09-16T09:26:46.400Z,3.60
2022-09-16T09:29:35.061Z,2.08
2022-09-16T09:32:26.269Z,1.33
2022-09-16T09:34:55.149Z,5.15
2022-09-16T09:37:51.343Z,2.60
2022-09-16T09:40:46.561Z,4.72
2022-09-16T09:43:59.947Z,2.83
2022-09-16T09:46:38.017Z,6.03
2022-09-16T09:49:06.980Z,1.55
2022-09-16T09:51:39.926Z,12.82
2022-09-16T09:54:38.631Z,5.38
2022-09-16T09:57:13.544Z,13.13
2022-09-16T10:00:11.601Z,6.88
2022-09-16T10:02:47.485Z,8.02
2022-09-16T10:05:30.297Z,15.80
2022-09-16T10:08:25.208Z,10.02
2022-09-16T10:11:00.723Z,18.25
2022-09-16T10:13:31.627Z,7.57
2022-09-16T10:16:16.037Z,5.63
2022-09-16T10:18:48.926Z,3.88
2022-09-16T10:21:19.041Z,3.90
2022-09-16T10:23:59.293Z,3.35
2022-09-16T10:26:29.851Z,3.15
2022-09-16T10:29:32.101Z,6.15
2022-09-16T10:32:07.615Z,6.55
2022-09-16T10:34:40.942Z,1.77
2022-09-16T10:37:14.182Z,2.30
2022-09-16T10:39:47.736Z,2.95
2022-09-16T10:42:35.756Z,4.57
2022-09-16T10:45:15.391Z,4.15
2022-09-16T10:47:52.440Z,6.25
2022-09-16T10:50:22.160Z,3.13
2022-09-16T10:52:51.470Z,4.20
2022-09-16T10:55:28.523Z,2.30
2022-09-16T10:58:10.435Z,3.78
2022-09-16T11:00:53.142Z,3.72
2022-09-16T11:03:52.763Z,1.90
2022-09-16T11:07:02.655Z,4.28
2022-09-16T11:09:55.586Z,2.85
2022-09-16T11:12:49.778Z,2.83
2022-09-16T11:16:04.927Z,2.50
2022-09-16T11:21:35.877Z,5.10
2022-09-16T11:24:29.403Z,2.67
2022-09-16T11:27:04.721Z,4.82
2022-09-16T11:29:36.594Z,2.17
2022-09-16T11:32:37.035Z,11.00
2022-09-16T11:35:26.651Z,4.38
2022-09-16T11:38:30.599Z,8.02
2022-09-16T11:41:25.325Z,9.85
2022-09-16T11:44:41.074Z,7.85
2022-09-16T11:47:40.377Z,25.73
2022-09-16T11:50:31.316Z,25.00
2022-09-16T11:53:40.021Z,32.25
2022-09-16T11:56:23.256Z,21.33
2022-09-16T11:59:33.755Z,12.20
2022-09-16T12:02:18.502Z,8.38
2022-09-16T12:05:00.335Z,8.07
2022-09-16T12:08:02.491Z,3.42
2022-09-16T12:10:46.890Z,3.97
2022-09-16T12:13:18.503Z,8.45
2022-09-16T12:15:55.439Z,3.63
2022-09-16T12:18:50.506Z,3.20
2022-09-16T12:21:28.646Z,2.63
2022-09-16T12:24:32.105Z,2.90
2022-09-16T12:27:07.232Z,3.58
2022-09-16T12:30:27.928Z,4.32
2022-09-16T12:33:07.459Z,5.65
2022-09-16T12:35:50.428Z,8.57
2022-09-16T12:38:21.073Z,10.00
2022-09-16T12:40:49.871Z,14.80
2022-09-16T12:43:37.807Z,12.77
2022-09-16T12:46:20.676Z,8.88
2022-09-16T12:49:21.207Z,10.52
2022-09-16T12:52:23.254Z,7.68
2022-09-16T12:55:09.069Z,11.13
2022-09-16T12:57:44.063Z,16.73
2022-09-16T13:00:29.401Z,23.73
2022-09-16T13:03:08.639Z,16.50
2022-09-16T13:05:40.128Z,10.27
2022-09-16T13:08:29.535Z,9.93
2022-09-16T13:11:47.192Z,3.63
2022-09-16T13:14:00.006Z,5.93
2022-09-16T13:19:22.297Z,5.40
2022-09-16T13:24:51.827Z,3.33
2022-09-16T13:27:41.014Z,8.30
2022-09-16T13:30:13.139Z,6.68
2022-09-16T13:32:47.194Z,9.45
2022-09-16T13:35:22.069Z,4.53
2022-09-16T13:37:54.346Z,5.32
2022-09-16T13:40:25.472Z,5.40
2022-09-16T13:43:11.736Z,10.05
2022-09-16T13:45:46.161Z,5.32
2022-09-16T13:48:25.789Z,7.35
2022-09-16T13:51:02.415Z,4.70
2022-09-16T13:53:34.378Z,11.18
2022-09-16T13:56:07.148Z,10.15
2022-09-16T13:58:48.745Z,6.20
2022-09-16T14:01:42.170Z,8.30
2022-09-16T14:04:57.860Z,8.50
2022-09-16T14:07:55.652Z,7.05
2022-09-16T14:10:39.064Z,5.25
2022-09-16T14:13:24.941Z,6.07
2022-09-16T14:15:56.818Z,14.57
2022-09-16T14:18:32.718Z,17.13
2022-09-16T14:21:18.841Z,15.43
2022-09-16T14:23:47.913Z,21.13
2022-09-16T14:26:19.256Z,17.95
2022-09-16T14:28:48.332Z,12.68
2022-09-16T14:31:24.371Z,9.73
2022-09-16T14:34:05.525Z,5.78
2022-09-16T14:36:39.825Z,8.68
2022-09-16T14:39:08.826Z,10.45
2022-09-16T14:41:42.342Z,10.80
2022-09-16T14:44:29.847Z,12.88
2022-09-16T14:47:21.858Z,12.38
2022-09-16T14:50:06.505Z,16.00
2022-09-16T14:52:37.022Z,10.95
2022-09-16T14:55:20.411Z,13.45
2022-09-16T14:57:49.656Z,13.65
2022-09-16T15:00:20.522Z,5.32
2022-09-16T15:02:58.337Z,6.72
2022-09-16T15:05:39.938Z,9.48
2022-09-16T15:08:27.137Z,9.52
2022-09-16T15:11:19.509Z,10.95
2022-09-16T15:13:59.426Z,21.85
2022-09-16T15:16:29.477Z,16.13
2022-09-16T15:19:03.569Z,19.13
2022-09-16T15:21:39.179Z,6.88
2022-09-16T15:24:22.057Z,9.80
2022-09-16T15:26:51.511Z,10.40
2022-09-16T15:29:21.216Z,7.78
2022-09-16T15:31:51.501Z,6.68
2022-09-16T15:34:20.572Z,6.97
2022-09-16T15:36:57.890Z,6.93
2022-09-16T15:39:30.655Z,7.72
2022-09-16T15:42:13.492Z,12.35
2022-09-16T15:45:00.637Z,10.40
2022-09-16T15:47:40.175Z,7.78
2022-09-16T15:50:11.295Z,6.05
2022-09-16T15:53:05.284Z,8.07
2022-09-16T15:56:03.101Z,6.43
2022-09-16T15:58:43.351Z,6.15
2022-09-16T16:01:32.329Z,5.45
2022-09-16T16:04:06.359Z,7.30
2022-09-16T16:09:33.429Z,7.72
2022-09-16T16:12:09.163Z,5.03
2022-09-16T16:14:39.650Z,6.07
2022-09-16T16:17:15.521Z,4.95
2022-09-16T16:19:46.955Z,8.60
2022-09-16T16:22:17.432Z,4.65
2022-09-16T16:24:46.555Z,8.00
2022-09-16T16:27:15.493Z,4.70
2022-09-16T16:29:44.388Z,6.07
2022-09-16T16:32:15.689Z,7.63
2022-09-16T16:34:51.216Z,7.05
2022-09-16T16:37:44.373Z,4.63
2022-09-16T16:40:10.605Z,3.85
2022-09-16T16:42:39.983Z,7.80
2022-09-16T16:45:09.561Z,9.57
2022-09-16T16:47:38.387Z,7.07
2022-09-16T16:50:07.684Z,5.15
2022-09-16T16:52:36.508Z,6.72
2022-09-16T16:55:06.022Z,10.80
2022-09-16T16:57:35.275Z,13.38
2022-09-16T17:00:06.324Z,6.30
2022-09-16T17:02:35.500Z,9.05
2022-09-16T17:05:04.434Z,7.70
2022-09-16T17:07:33.454Z,7.35
2022-09-16T17:10:02.430Z,9.57
2022-09-16T17:12:31.415Z,5.20
2022-09-16T17:15:00.334Z,7.22
2022-09-16T17:17:31.588Z,12.23
2022-09-16T17:20:01.106Z,7.28
2022-09-16T17:22:30.214Z,8.85
2022-09-16T17:24:59.053Z,5.60
2022-09-16T17:27:29.020Z,7.32
2022-09-16T17:29:58.010Z,10.23
2022-09-16T17:32:26.951Z,10.32
2022-09-16T17:34:55.928Z,9.02
2022-09-16T17:37:24.880Z,7.05
2022-09-16T17:39:53.867Z,9.18
2022-09-16T17:42:22.875Z,7.90
2022-09-16T17:44:51.727Z,8.88
2022-09-16T17:47:20.821Z,10.13
2022-09-16T17:49:51.179Z,9.90
2022-09-16T17:52:20.114Z,12.43
2022-09-16T17:54:49.080Z,7.78
2022-09-16T17:57:18.094Z,8.43
2022-09-16T17:59:46.976Z,10.43
2022-09-16T18:02:16.849Z,10.18
2022-09-16T18:04:45.801Z,8.30
2022-09-16T18:07:14.775Z,7.30
2022-09-16T18:09:43.754Z,9.95
2022-09-16T18:12:13.082Z,11.30
2022-09-16T18:14:42.067Z,7.03
2022-09-16T18:17:11.143Z,10.25
2022-09-16T18:19:41.598Z,9.05
2022-09-16T18:22:10.535Z,11.10
2022-09-16T18:24:39.460Z,21.67
2022-09-16T18:27:08.392Z,20.58
2022-09-16T18:29:37.440Z,18.98
2022-09-16T18:32:06.493Z,11.32
2022-09-16T18:34:35.415Z,13.13
2022-09-16T18:37:04.343Z,10.38
2022-09-16T18:39:33.497Z,10.98
2022-09-16T18:42:02.442Z,12.68
2022-09-16T18:44:31.392Z,11.73
2022-09-16T18:47:00.994Z,11.00
2022-09-16T18:49:31.218Z,9.27
2022-09-16T18:52:00.105Z,8.32
2022-09-16T18:54:30.609Z,10.60
2022-09-16T18:57:01.414Z,8.30
2022-09-16T18:59:33.708Z,12.77
2022-09-16T19:02:04.609Z,8.88
2022-09-16T19:04:38.407Z,8.50
2022-09-16T19:07:08.984Z,9.82
2022-09-16T19:09:42.747Z,15.88
2022-09-16T19:12:13.410Z,13.07
2022-09-16T19:14:42.982Z,9.13
2022-09-16T19:17:11.945Z,12.02
2022-09-16T19:19:41.600Z,9.40
2022-09-16T19:22:11.119Z,8.40
2022-09-16T19:24:39.964Z,10.38
2022-09-16T19:27:08.864Z,11.63
2022-09-16T19:29:37.737Z,6.75
2022-09-16T19:32:06.833Z,7.20
2022-09-16T19:34:35.826Z,9.80
2022-09-16T19:37:04.814Z,8.63
2022-09-16T19:39:33.726Z,11.32
2022-09-16T19:42:04.703Z,8.85
2022-09-16T19:44:33.692Z,16.42
2022-09-16T19:47:03.190Z,11.35
2022-09-16T19:49:32.075Z,15.52
2022-09-16T19:52:01.021Z,8.73
2022-09-16T19:54:29.858Z,13.32
2022-09-16T19:56:58.720Z,7.40
2022-09-16T19:59:27.681Z,10.70
2022-09-16T20:01:56.615Z,11.38
2022-09-16T20:04:25.667Z,9.32
2022-09-16T20:06:54.515Z,14.45
2022-09-16T20:09:23.405Z,15.40
2022-09-16T20:11:52.311Z,10.88
2022-09-16T20:14:23.012Z,11.45
2022-09-16T20:16:53.016Z,10.65
2022-09-16T20:19:22.598Z,13.90
2022-09-16T20:21:51.557Z,13.10
2022-09-16T20:24:23.309Z,14.40
2022-09-16T20:26:54.862Z,11.57
2022-09-16T20:29:24.269Z,12.40
2022-09-16T20:31:54.663Z,12.00
2022-09-16T20:34:25.294Z,8.98
2022-09-16T20:36:54.190Z,12.27
2022-09-16T20:39:23.978Z,15.63
2022-09-16T20:41:53.759Z,13.10
2022-09-16T20:44:22.754Z,9.55
2022-09-16T20:46:51.658Z,9.70
2022-09-16T20:49:21.762Z,7.20
2022-09-16T20:51:50.729Z,12.15
2022-09-16T20:54:19.589Z,8.57
2022-09-16T20:56:50.365Z,8.85
2022-09-16T20:59:21.349Z,7.53
2022-09-16T21:01:50.970Z,13.23
2022-09-16T21:04:21.679Z,12.45
2022-09-16T21:06:50.837Z,7.43
2022-09-16T21:09:20.148Z,8.93
2022-09-16T21:11:52.557Z,6.90
2022-09-16T21:14:23.646Z,9.63
2022-09-16T21:16:53.495Z,8.85
2022-09-16T21:19:22.520Z,9.48
2022-09-16T21:21:52.139Z,9.68
2022-09-16T21:24:21.227Z,10.98
2022-09-16T21:26:50.172Z,15.40
2022-09-16T21:29:22.497Z,13.27
2022-09-16T21:31:52.725Z,12.63
2022-09-16T21:34:22.755Z,9.52
2022-09-16T21:36:52.344Z,10.57
2022-09-16T21:39:22.942Z,6.95
2022-09-16T21:41:51.862Z,10.07
2022-09-16T21:44:20.973Z,11.70
2022-09-16T21:46:50.740Z,11.18
2022-09-16T21:49:26.528Z,18.33
2022-09-16T21:51:57.400Z,10.38
2022-09-16T21:54:27.700Z,11.30
2022-09-16T21:56:56.621Z,9.93
2022-09-16T21:59:25.869Z,11.43
2022-09-16T22:01:56.126Z,10.43
2022-09-16T22:04:27.670Z,11.82
2022-09-16T22:06:57.065Z,12.30
2022-09-16T22:09:25.917Z,11.23
2022-09-16T22:11:54.818Z,11.85
2022-09-16T22:14:23.688Z,8.60
2022-09-16T22:16:52.630Z,8.38
2022-09-16T22:19:21.758Z,10.23
2022-09-16T22:21:52.449Z,12.02
2022-09-16T22:24:22.389Z,11.52
2022-09-16T22:26:52.824Z,8.25
2022-09-16T22:29:22.078Z,8.02
2022-09-16T22:31:51.004Z,7.15
2022-09-16T22:34:20.172Z,8.32
2022-09-16T22:36:49.055Z,12.93
2022-09-16T22:39:20.933Z,8.48
2022-09-16T22:41:50.207Z,7.85
2022-09-16T22:44:19.096Z,7.10
2022-09-16T22:46:49.615Z,19.23
2022-09-16T22:49:18.575Z,9.82
2022-09-16T22:51:47.698Z,8.60
2022-09-16T22:54:17.170Z,10.25
2022-09-16T22:56:46.100Z,18.67
2022-09-16T22:59:21.386Z,12.20
2022-09-16T23:01:50.835Z,10.02
2022-09-16T23:04:20.464Z,8.80
2022-09-16T23:06:49.408Z,9.27
2022-09-16T23:09:18.293Z,16.17
2022-09-16T23:11:47.122Z,12.57
2022-09-16T23:14:22.840Z,8.95
2022-09-16T23:16:52.590Z,12.80
2022-09-16T23:19:22.159Z,9.88
2022-09-16T23:21:51.466Z,11.05
2022-09-16T23:24:22.997Z,10.60
2022-09-16T23:26:51.941Z,10.30
2022-09-16T23:29:20.935Z,11.65
2022-09-16T23:31:49.809Z,13.25
2022-09-16T23:34:23.071Z,14.90
2022-09-16T23:36:52.132Z,13.98
2022-09-16T23:39:21.460Z,14.65
2022-09-16T23:41:51.583Z,12.70
2022-09-16T23:44:21.338Z,14.18
2022-09-16T23:46:50.760Z,9.55
2022-09-16T23:49:21.424Z,12.68
2022-09-16T23:51:50.747Z,13.10
2022-09-16T23:54:19.756Z,16.27
2022-09-16T23:56:48.664Z,13.95
2022-09-16T23:59:17.709Z,15.13
